Terminal Aerodrome Forecast
Issued by NWS

Home | Current Version | Previous Version | Text Only | Print | Product List | Glossary Off
Versions: 1 2 3 4 5 6 7 8 9 10 11 12 13 14

000
FTUS43 KUNR 190500
TAFGCC
TAF
KGCC 190520Z 1906/2006 VRB04KT P6SM BKN150
     FM190900 16010KT P6SM SCT100
     FM192000 16012KT P6SM SCT050 BKN100
      TEMPO 1922/2002 -TSRA BKN050CB=

USA.gov is the U.S. government's official web portal to all federal, state and local government web resources and services.